createdAt,value
2019-02-11T00:01:19.976Z,93.73
2019-02-11T00:03:47.365Z,93.70
2019-02-11T00:06:14.790Z,93.45
2019-02-11T00:08:42.165Z,93.44
2019-02-11T00:11:09.672Z,93.43
2019-02-11T00:13:37.105Z,93.34
2019-02-11T00:16:04.529Z,93.57
2019-02-11T00:18:31.895Z,93.42
2019-02-11T00:20:59.319Z,93.39
2019-02-11T00:23:26.710Z,93.33
2019-02-11T00:25:54.115Z,93.28
2019-02-11T00:28:21.490Z,93.32
2019-02-11T00:30:48.910Z,93.31
2019-02-11T00:33:16.313Z,93.37
2019-02-11T00:35:43.725Z,93.46
2019-02-11T00:38:11.105Z,93.38
2019-02-11T00:40:38.550Z,93.49
2019-02-11T00:43:05.905Z,93.40
2019-02-11T00:45:33.344Z,93.27
2019-02-11T00:48:00.720Z,93.02
2019-02-11T00:50:28.165Z,92.78
2019-02-11T00:52:55.515Z,92.64
2019-02-11T00:55:22.926Z,92.69
2019-02-11T00:57:50.290Z,92.73
2019-02-11T01:00:17.765Z,92.84
2019-02-11T01:02:45.140Z,92.88
2019-02-11T01:05:12.545Z,92.58
2019-02-11T01:07:39.902Z,92.72
2019-02-11T01:10:09.314Z,92.53
2019-02-11T01:12:36.775Z,92.46
2019-02-11T01:15:05.115Z,92.43
2019-02-11T01:17:32.505Z,92.36
2019-02-11T01:19:59.855Z,92.33
2019-02-11T01:22:27.260Z,92.53
2019-02-11T01:24:54.650Z,92.45
2019-02-11T01:27:23.950Z,92.39
2019-02-11T01:29:51.310Z,92.47
2019-02-11T01:32:18.761Z,92.34
2019-02-11T01:34:46.115Z,92.38
2019-02-11T01:37:13.524Z,92.42
2019-02-11T01:39:41.325Z,92.46
2019-02-11T01:42:08.788Z,92.54
2019-02-11T01:44:36.151Z,92.53
2019-02-11T01:47:03.684Z,92.42
2019-02-11T01:49:31.068Z,92.26
2019-02-11T01:51:58.505Z,92.20
2019-02-11T01:54:25.997Z,92.17
2019-02-11T01:56:53.410Z,92.06
2019-02-11T01:59:20.818Z,91.99
2019-02-11T02:01:48.225Z,92.17
2019-02-11T02:04:15.601Z,92.16
2019-02-11T02:06:43.040Z,91.93
2019-02-11T02:09:10.810Z,91.87
2019-02-11T02:11:38.335Z,91.71
2019-02-11T02:14:05.740Z,91.71
2019-02-11T02:16:33.180Z,91.63
2019-02-11T02:19:00.550Z,91.59
2019-02-11T02:21:27.915Z,91.51
2019-02-11T02:23:55.374Z,91.37
2019-02-11T02:26:22.747Z,91.17
2019-02-11T02:28:50.182Z,91.27
2019-02-11T02:31:17.599Z,90.80
2019-02-11T02:33:45.007Z,90.60
2019-02-11T02:36:12.362Z,90.02
2019-02-11T02:38:39.767Z,89.80
2019-02-11T02:41:07.181Z,89.51
2019-02-11T02:43:34.678Z,89.31
2019-02-11T02:46:02.084Z,89.32
2019-02-11T02:48:29.526Z,89.17
2019-02-11T02:50:56.909Z,89.02
2019-02-11T02:53:24.376Z,88.83
2019-02-11T02:55:51.764Z,89.16
2019-02-11T02:58:19.191Z,89.24
2019-02-11T03:00:46.564Z,89.32
2019-02-11T03:03:13.990Z,89.62
2019-02-11T03:05:41.386Z,89.39
2019-02-11T03:08:08.790Z,89.36
2019-02-11T03:10:36.197Z,89.40
2019-02-11T03:13:03.628Z,89.50
2019-02-11T03:15:31.004Z,89.28
2019-02-11T03:17:58.445Z,89.27
2019-02-11T03:20:25.830Z,89.18
2019-02-11T03:22:53.265Z,88.79
2019-02-11T03:25:20.664Z,88.79
2019-02-11T03:27:48.108Z,88.89
2019-02-11T03:30:17.527Z,88.61
2019-02-11T03:32:44.938Z,88.56
2019-02-11T03:35:12.339Z,88.23
2019-02-11T03:37:39.761Z,88.15
2019-02-11T03:40:07.417Z,87.98
2019-02-11T03:42:34.860Z,87.42
2019-02-11T03:45:02.279Z,87.51
2019-02-11T03:47:29.705Z,87.37
2019-02-11T03:49:57.133Z,87.10
2019-02-11T03:52:24.609Z,86.53
2019-02-11T03:54:52.035Z,85.83
2019-02-11T03:57:19.426Z,86.26
2019-02-11T03:59:46.879Z,86.25
2019-02-11T04:02:14.451Z,86.28
2019-02-11T04:04:41.974Z,86.33
2019-02-11T04:07:09.343Z,86.46
2019-02-11T04:09:36.765Z,86.26
2019-02-11T04:12:04.227Z,85.96
2019-02-11T04:14:31.711Z,85.67
2019-02-11T04:16:59.090Z,85.64
2019-02-11T04:19:26.541Z,86.03
2019-02-11T04:22:05.353Z,85.92
2019-02-11T04:24:32.749Z,85.89
2019-02-11T04:27:00.124Z,86.05
2019-02-11T04:29:27.562Z,85.54
2019-02-11T04:31:54.950Z,85.19
2019-02-11T04:34:22.378Z,84.81
2019-02-11T04:36:49.746Z,84.77
2019-02-11T04:39:17.184Z,85.01
2019-02-11T04:41:44.602Z,85.24
2019-02-11T04:44:12.058Z,84.98
2019-02-11T04:46:39.470Z,85.01
2019-02-11T04:49:06.889Z,85.04
2019-02-11T04:51:34.250Z,85.25
2019-02-11T04:54:01.811Z,85.03
2019-02-11T04:56:29.214Z,84.99
2019-02-11T04:58:56.669Z,85.31
2019-02-11T05:01:24.065Z,84.83
2019-02-11T05:03:51.450Z,84.90
2019-02-11T05:06:18.896Z,85.14
2019-02-11T05:08:46.279Z,85.31
2019-02-11T05:11:13.766Z,85.12
2019-02-11T05:13:41.171Z,84.86
2019-02-11T05:16:08.590Z,85.09
2019-02-11T05:18:35.991Z,84.50
2019-02-11T05:21:03.494Z,84.40
2019-02-11T05:23:30.925Z,84.48
2019-02-11T05:25:58.345Z,84.57
2019-02-11T05:28:25.721Z,84.73
2019-02-11T05:30:53.150Z,85.20
2019-02-11T05:33:20.802Z,85.18
2019-02-11T05:35:48.313Z,85.43
2019-02-11T05:38:15.715Z,84.87
2019-02-11T05:40:43.132Z,84.84
2019-02-11T05:43:10.505Z,84.80
2019-02-11T05:45:37.925Z,84.55
2019-02-11T05:48:05.331Z,84.57
2019-02-11T05:50:32.770Z,84.45
2019-02-11T05:53:00.166Z,84.73
2019-02-11T05:55:28.419Z,84.35
2019-02-11T05:57:55.821Z,83.87
2019-02-11T06:00:23.316Z,84.31
2019-02-11T06:02:50.750Z,83.97
2019-02-11T06:05:18.197Z,83.82
2019-02-11T06:07:45.619Z,83.43
2019-02-11T06:10:13.079Z,83.85
2019-02-11T06:12:40.506Z,83.42
2019-02-11T06:15:08.506Z,83.05
2019-02-11T06:17:35.964Z,83.17
2019-02-11T06:20:03.459Z,83.16
2019-02-11T06:22:30.876Z,83.42
2019-02-11T06:24:58.280Z,83.34
2019-02-11T06:27:25.700Z,82.66
2019-02-11T06:29:53.085Z,82.37
2019-02-11T06:32:20.521Z,82.44
2019-02-11T06:34:47.916Z,82.44
2019-02-11T06:37:15.346Z,82.43
2019-02-11T06:39:43.084Z,82.48
2019-02-11T06:42:14.224Z,82.83
2019-02-11T06:44:41.615Z,83.20
2019-02-11T06:47:09.063Z,83.21
2019-02-11T06:49:36.445Z,83.01
2019-02-11T06:52:03.912Z,82.94
2019-02-11T06:54:31.308Z,83.37
2019-02-11T06:56:58.751Z,83.47
2019-02-11T06:59:26.145Z,83.71
2019-02-11T07:01:53.646Z,83.90
2019-02-11T07:04:21.020Z,84.02
2019-02-11T07:06:51.080Z,84.16
2019-02-11T07:09:18.596Z,84.68
2019-02-11T07:11:46.184Z,84.67
2019-02-11T07:14:13.595Z,84.75
2019-02-11T07:16:42.330Z,84.92
2019-02-11T07:19:12.899Z,85.33
2019-02-11T07:21:43.200Z,85.24
2019-02-11T07:24:13.379Z,85.66
2019-02-11T07:26:45.636Z,85.92
2019-02-11T07:29:13.026Z,86.35
2019-02-11T07:31:40.510Z,86.73
2019-02-11T07:34:07.906Z,87.48
2019-02-11T07:36:35.335Z,87.95
2019-02-11T07:39:04.030Z,88.10
2019-02-11T07:41:38.050Z,88.69
2019-02-11T07:44:11.929Z,88.72
2019-02-11T07:46:42.885Z,89.17
2019-02-11T07:49:10.275Z,89.40
2019-02-11T07:51:42.430Z,89.29
2019-02-11T07:54:07.975Z,89.50
2019-02-11T07:56:35.370Z,89.43
2019-02-11T07:59:02.785Z,89.81
2019-02-11T08:02:00.868Z,89.98
2019-02-11T08:04:40.704Z,90.28
2019-02-11T08:07:08.165Z,90.27
2019-02-11T08:09:35.705Z,90.48
2019-02-11T08:12:07.589Z,90.73
2019-02-11T08:14:35.010Z,90.79
2019-02-11T08:17:02.475Z,90.97
2019-02-11T08:19:29.911Z,90.84
2019-02-11T08:21:57.395Z,90.87
2019-02-11T08:24:25.199Z,90.83
2019-02-11T08:26:52.565Z,91.16
2019-02-11T08:29:20.027Z,90.98
2019-02-11T08:31:47.515Z,91.03
2019-02-11T08:34:14.930Z,91.06
2019-02-11T08:36:42.317Z,90.98
2019-02-11T08:39:10.305Z,90.81
2019-02-11T08:41:37.715Z,90.89
2019-02-11T08:44:05.155Z,90.36
2019-02-11T08:46:32.550Z,90.24
2019-02-11T08:49:00.015Z,90.20
2019-02-11T08:51:27.512Z,90.23
2019-02-11T08:53:54.965Z,90.15
2019-02-11T08:56:31.390Z,90.22
2019-02-11T08:58:58.884Z,90.18
2019-02-11T09:01:26.433Z,89.90
2019-02-11T09:03:53.953Z,89.68
2019-02-11T09:06:54.309Z,89.28
2019-02-11T09:09:22.915Z,88.95
2019-02-11T09:11:57.865Z,88.83
2019-02-11T09:14:36.075Z,88.74
2019-02-11T09:17:10.088Z,88.21
2019-02-11T09:19:32.993Z,87.89
2019-02-11T09:22:07.282Z,87.46
2019-02-11T09:24:29.754Z,86.85
2019-02-11T09:26:57.152Z,86.26
2019-02-11T09:29:25.120Z,85.88
2019-02-11T09:31:52.574Z,85.32
2019-02-11T09:35:11.210Z,85.22
2019-02-11T09:37:48.914Z,84.73
2019-02-11T09:40:16.790Z,84.88
2019-02-11T09:42:44.280Z,84.61
2019-02-11T09:45:15.414Z,83.70
2019-02-11T09:47:42.839Z,83.64
2019-02-11T09:50:15.428Z,83.19
2019-02-11T09:52:42.805Z,82.95
2019-02-11T09:55:22.306Z,83.17
2019-02-11T09:57:49.716Z,83.32
2019-02-11T10:00:17.250Z,82.20
2019-02-11T10:02:44.665Z,81.30
2019-02-11T10:05:11.905Z,80.14
2019-02-11T10:07:39.391Z,78.86
2019-02-11T10:10:07.605Z,78.04
2019-02-11T10:12:35.045Z,77.68
2019-02-11T10:15:02.796Z,77.49
2019-02-11T10:17:30.211Z,77.56
2019-02-11T10:19:57.778Z,77.04
2019-02-11T10:22:25.363Z,76.83
2019-02-11T10:24:52.825Z,77.03
2019-02-11T10:27:20.220Z,77.13
2019-02-11T10:29:47.654Z,77.41
2019-02-11T10:32:45.430Z,77.41
2019-02-11T10:35:13.080Z,77.60
2019-02-11T10:37:40.444Z,77.15
2019-02-11T10:40:25.206Z,77.76
2019-02-11T10:42:56.545Z,78.10
2019-02-11T10:45:24.035Z,78.21
2019-02-11T10:47:51.518Z,77.90
2019-02-11T10:50:19.000Z,77.99
2019-02-11T10:52:50.251Z,77.75
2019-02-11T10:55:21.534Z,78.79
2019-02-11T10:57:48.990Z,78.55
2019-02-11T11:00:18.845Z,79.77
2019-02-11T11:03:13.668Z,80.25
2019-02-11T11:05:55.808Z,78.39
2019-02-11T11:08:23.119Z,79.59
2019-02-11T11:10:50.625Z,79.65
2019-02-11T11:13:18.065Z,80.28
2019-02-11T11:16:16.061Z,79.90
2019-02-11T11:18:45.665Z,77.45
2019-02-11T11:21:26.700Z,74.30
2019-02-11T11:24:03.544Z,74.31
2019-02-11T11:26:30.947Z,73.30
2019-02-11T11:28:58.375Z,73.46
2019-02-11T11:31:25.851Z,73.44
2019-02-11T11:33:53.655Z,73.24
2019-02-11T11:36:21.105Z,74.42
2019-02-11T11:38:48.496Z,74.26
2019-02-11T11:41:16.455Z,76.73
2019-02-11T11:43:43.827Z,79.27
2019-02-11T11:46:11.212Z,81.88
2019-02-11T11:48:38.687Z,82.67
2019-02-11T11:51:06.190Z,83.76
2019-02-11T11:53:33.610Z,83.17
2019-02-11T11:56:02.469Z,84.55
2019-02-11T11:58:30.335Z,83.38
2019-02-11T12:00:57.715Z,82.96
2019-02-11T12:03:25.158Z,82.81
2019-02-11T12:05:52.667Z,83.00
2019-02-11T12:08:20.115Z,83.25
2019-02-11T12:10:47.550Z,82.48
2019-02-11T12:13:22.334Z,81.42
2019-02-11T12:15:44.324Z,81.17
2019-02-11T12:18:12.043Z,79.37
2019-02-11T12:20:39.605Z,79.43
2019-02-11T12:23:07.098Z,76.76
2019-02-11T12:25:36.616Z,76.46
2019-02-11T12:28:04.049Z,76.61
2019-02-11T12:30:44.868Z,77.10
2019-02-11T12:33:13.565Z,77.45
2019-02-11T12:35:41.051Z,76.78
2019-02-11T12:38:08.494Z,76.96
2019-02-11T12:40:35.905Z,76.67
2019-02-11T12:43:03.332Z,77.25
2019-02-11T12:45:30.836Z,76.19
2019-02-11T12:47:58.273Z,75.81
2019-02-11T12:50:25.972Z,75.61
2019-02-11T12:52:53.458Z,75.94
2019-02-11T12:55:20.881Z,73.36
2019-02-11T12:57:48.415Z,71.04
2019-02-11T13:00:18.218Z,70.70
2019-02-11T13:02:45.910Z,70.50
2019-02-11T13:05:13.871Z,69.36
2019-02-11T13:07:41.359Z,68.55
2019-02-11T13:10:14.443Z,66.87
2019-02-11T13:12:41.927Z,66.03
2019-02-11T13:15:09.841Z,65.39
2019-02-11T13:17:39.681Z,63.97
2019-02-11T13:20:11.651Z,62.14
2019-02-11T13:22:54.917Z,61.42
2019-02-11T13:25:25.848Z,61.79
2019-02-11T13:27:55.179Z,61.23
2019-02-11T13:30:22.720Z,61.00
2019-02-11T13:32:50.676Z,60.49
2019-02-11T13:35:18.379Z,61.55
2019-02-11T13:37:47.303Z,61.14
2019-02-11T13:40:14.753Z,59.24
2019-02-11T13:42:42.624Z,59.77
2019-02-11T13:45:15.459Z,60.09
2019-02-11T13:47:53.718Z,60.43
2019-02-11T13:50:15.849Z,60.25
2019-02-11T13:52:46.549Z,59.97
2019-02-11T13:55:14.211Z,59.35
2019-02-11T13:57:44.958Z,59.24
2019-02-11T14:00:33.239Z,60.37
2019-02-11T14:03:12.758Z,59.96
2019-02-11T14:05:57.660Z,59.82
2019-02-11T14:08:44.396Z,59.59
2019-02-11T14:11:12.374Z,59.77
2019-02-11T14:14:02.240Z,59.35
2019-02-11T14:16:30.363Z,58.36
2019-02-11T14:18:58.547Z,58.45
2019-02-11T14:21:36.872Z,58.12
2019-02-11T14:24:04.835Z,57.86
2019-02-11T14:26:32.575Z,58.32
2019-02-11T14:29:06.449Z,57.72
2019-02-11T14:31:40.613Z,57.55
2019-02-11T14:34:17.606Z,57.75
2019-02-11T14:36:47.765Z,58.50
2019-02-11T14:39:15.666Z,58.56
2019-02-11T14:41:48.375Z,58.43
2019-02-11T14:44:16.578Z,58.97
2019-02-11T14:46:46.859Z,59.82
2019-02-11T14:49:14.705Z,59.54
2019-02-11T14:51:48.698Z,60.12
2019-02-11T14:54:21.953Z,60.33
2019-02-11T14:56:54.907Z,60.52
2019-02-11T14:59:22.763Z,61.34
2019-02-11T15:01:56.208Z,61.60
2019-02-11T15:04:29.508Z,61.56
2019-02-11T15:07:01.131Z,63.02
2019-02-11T15:09:34.773Z,63.70
2019-02-11T15:12:06.993Z,64.89
2019-02-11T15:14:34.652Z,65.54
2019-02-11T15:17:05.463Z,65.94
2019-02-11T15:19:39.065Z,65.19
2019-02-11T15:22:09.368Z,64.96
2019-02-11T15:24:43.138Z,65.03
2019-02-11T15:27:17.589Z,65.33
2019-02-11T15:29:50.187Z,66.02
2019-02-11T15:32:19.081Z,66.01
2019-02-11T15:34:48.331Z,66.53
2019-02-11T15:37:22.266Z,66.21
2019-02-11T15:39:52.497Z,66.44
2019-02-11T15:42:20.748Z,66.59
2019-02-11T15:44:52.411Z,66.54
2019-02-11T15:47:20.613Z,66.45
2019-02-11T15:49:53.118Z,66.28
2019-02-11T15:52:21.119Z,66.38
2019-02-11T15:54:53.647Z,65.75
2019-02-11T15:57:22.008Z,64.50
2019-02-11T15:59:50.152Z,64.34
2019-02-11T16:02:21.712Z,64.17
2019-02-11T16:04:49.885Z,63.32
2019-02-11T16:07:21.825Z,63.13
2019-02-11T16:09:52.632Z,62.57
2019-02-11T16:12:20.633Z,63.82
2019-02-11T16:14:53.447Z,62.84
2019-02-11T16:17:21.528Z,63.01
2019-02-11T16:19:49.452Z,63.27
2019-02-11T16:22:17.619Z,63.50
2019-02-11T16:24:45.943Z,64.03
2019-02-11T16:27:14.086Z,64.35
2019-02-11T16:29:42.298Z,64.03
2019-02-11T16:32:10.371Z,65.14
2019-02-11T16:34:38.366Z,66.69
2019-02-11T16:37:08.787Z,67.89
2019-02-11T16:39:36.837Z,68.23
2019-02-11T16:42:05.000Z,68.77
2019-02-11T16:44:33.051Z,69.09
2019-02-11T16:47:07.947Z,70.55
2019-02-11T16:49:36.688Z,70.05
2019-02-11T16:52:05.947Z,69.87
2019-02-11T16:54:33.982Z,69.81
2019-02-11T16:57:03.772Z,70.33
2019-02-11T16:59:33.501Z,69.87
2019-02-11T17:02:06.200Z,69.26
2019-02-11T17:04:41.107Z,68.87
2019-02-11T17:07:09.336Z,69.49
2019-02-11T17:09:38.865Z,69.26
2019-02-11T17:12:09.146Z,68.93
2019-02-11T17:14:37.041Z,68.96
2019-02-11T17:17:05.081Z,69.00
2019-02-11T17:19:38.335Z,69.04
2019-02-11T17:22:06.600Z,67.67
2019-02-11T17:24:34.902Z,67.22
2019-02-11T17:27:05.206Z,67.48
2019-02-11T17:29:33.361Z,67.54
2019-02-11T17:32:01.386Z,66.84
2019-02-11T17:34:29.451Z,66.50
2019-02-11T17:36:57.706Z,66.64
2019-02-11T17:39:25.773Z,66.73
2019-02-11T17:41:54.180Z,66.86
2019-02-11T17:44:23.582Z,66.32
2019-02-11T17:46:51.661Z,66.25
2019-02-11T17:49:19.809Z,66.76
2019-02-11T17:51:50.062Z,65.94
2019-02-11T17:54:18.441Z,66.06
2019-02-11T17:56:47.761Z,66.38
2019-02-11T17:59:15.786Z,66.20
2019-02-11T18:01:43.926Z,66.09
2019-02-11T18:04:12.076Z,65.54
2019-02-11T18:06:40.045Z,65.89
2019-02-11T18:09:10.498Z,64.94
2019-02-11T18:11:38.790Z,65.35
2019-02-11T18:14:08.135Z,65.66
2019-02-11T18:16:36.191Z,65.71
2019-02-11T18:19:04.310Z,65.37
2019-02-11T18:21:36.216Z,64.92
2019-02-11T18:24:04.415Z,64.77
2019-02-11T18:26:32.430Z,63.70
2019-02-11T18:29:00.559Z,63.35
2019-02-11T18:31:28.585Z,63.71
2019-02-11T18:33:56.723Z,63.22
2019-02-11T18:36:24.736Z,63.12
2019-02-11T18:38:52.791Z,63.28
2019-02-11T18:41:22.490Z,63.64
2019-02-11T18:43:50.827Z,63.54
2019-02-11T18:46:18.970Z,63.47
2019-02-11T18:48:47.660Z,63.19
2019-02-11T18:51:16.754Z,63.33
2019-02-11T18:53:44.924Z,64.02
2019-02-11T18:56:14.178Z,64.66
2019-02-11T18:58:42.615Z,64.90
2019-02-11T19:01:10.850Z,64.81
2019-02-11T19:03:39.005Z,65.19
2019-02-11T19:06:09.665Z,65.11
2019-02-11T19:08:37.801Z,65.23
2019-02-11T19:11:08.000Z,65.65
2019-02-11T19:13:36.201Z,65.68
2019-02-11T19:16:04.226Z,65.75
2019-02-11T19:18:32.491Z,66.12
2019-02-11T19:21:00.550Z,66.13
2019-02-11T19:23:28.995Z,66.69
2019-02-11T19:25:58.185Z,66.59
2019-02-11T19:28:26.115Z,66.97
2019-02-11T19:30:54.230Z,67.23
2019-02-11T19:33:22.230Z,67.16
2019-02-11T19:35:50.426Z,67.29
2019-02-11T19:38:18.505Z,67.50
2019-02-11T19:40:46.674Z,67.96
2019-02-11T19:43:14.890Z,68.39
2019-02-11T19:45:44.049Z,68.66
2019-02-11T19:48:16.891Z,68.92
2019-02-11T19:50:45.095Z,69.85
2019-02-11T19:53:16.065Z,70.01
2019-02-11T19:55:44.335Z,70.53
2019-02-11T19:58:12.261Z,70.82
2019-02-11T20:00:40.479Z,71.02
2019-02-11T20:03:08.558Z,71.36
2019-02-11T20:05:36.642Z,71.67
2019-02-11T20:08:04.784Z,71.75
2019-02-11T20:10:32.916Z,71.73
2019-02-11T20:13:01.077Z,71.68
2019-02-11T20:15:29.646Z,71.71
2019-02-11T20:17:57.724Z,71.85
2019-02-11T20:20:25.886Z,71.90
2019-02-11T20:22:54.010Z,71.97
2019-02-11T20:25:22.175Z,72.16
2019-02-11T20:27:50.135Z,72.26
2019-02-11T20:30:20.440Z,72.51
2019-02-11T20:32:48.386Z,72.51
2019-02-11T20:35:16.584Z,72.56
2019-02-11T20:37:44.787Z,72.61
2019-02-11T20:40:15.092Z,72.35
2019-02-11T20:42:43.008Z,72.46
2019-02-11T20:45:13.705Z,72.69
2019-02-11T20:47:42.126Z,72.71
2019-02-11T20:50:12.085Z,72.61
2019-02-11T20:52:40.213Z,72.24
2019-02-11T20:55:09.653Z,72.12
2019-02-11T20:57:37.776Z,71.99
2019-02-11T21:00:09.041Z,71.72
2019-02-11T21:02:37.216Z,71.75
2019-02-11T21:05:08.497Z,71.61
2019-02-11T21:07:36.531Z,71.51
2019-02-11T21:10:05.251Z,71.02
2019-02-11T21:12:33.430Z,70.83
2019-02-11T21:15:01.537Z,70.91
2019-02-11T21:17:30.090Z,71.29
2019-02-11T21:19:58.129Z,71.26
2019-02-11T21:22:26.950Z,70.99
2019-02-11T21:24:54.841Z,70.83
2019-02-11T21:27:22.916Z,70.70
2019-02-11T21:29:50.934Z,70.26
2019-02-11T21:32:19.585Z,69.20
2019-02-11T21:34:48.868Z,67.54
2019-02-11T21:37:18.307Z,68.27
2019-02-11T21:39:46.391Z,68.11
2019-02-11T21:42:15.227Z,67.31
2019-02-11T21:44:43.521Z,66.53
2019-02-11T21:47:12.624Z,66.00
2019-02-11T21:49:46.542Z,65.63
2019-02-11T21:52:14.770Z,64.94
2019-02-11T21:54:42.547Z,65.53
2019-02-11T21:57:10.381Z,64.87
2019-02-11T21:59:49.345Z,64.63
2019-02-11T22:02:19.516Z,64.14
2019-02-11T22:04:47.517Z,63.53
2019-02-11T22:07:15.391Z,63.24
2019-02-11T22:09:42.860Z,62.91
2019-02-11T22:12:10.426Z,62.86
2019-02-11T22:14:37.842Z,62.85
2019-02-11T22:17:05.421Z,62.91
2019-02-11T22:19:33.188Z,62.50
2019-02-11T22:22:00.690Z,62.88
2019-02-11T22:24:28.055Z,62.68
2019-02-11T22:26:55.474Z,62.59
2019-02-11T22:29:22.927Z,62.50
2019-02-11T22:31:50.421Z,62.55
2019-02-11T22:34:17.851Z,62.52
2019-02-11T22:36:45.240Z,62.65
2019-02-11T22:39:12.705Z,62.72
2019-02-11T22:41:40.218Z,62.98
2019-02-11T22:44:07.909Z,63.39
2019-02-11T22:46:35.332Z,63.42
2019-02-11T22:49:03.366Z,64.11
2019-02-11T22:51:30.844Z,64.44
2019-02-11T22:53:58.396Z,64.81
2019-02-11T22:56:26.674Z,65.41
2019-02-11T22:58:55.222Z,65.79
2019-02-11T23:01:23.026Z,66.17
2019-02-11T23:03:50.746Z,66.25
2019-02-11T23:06:18.148Z,66.37
2019-02-11T23:08:45.636Z,66.33
2019-02-11T23:11:13.066Z,66.25
2019-02-11T23:13:40.641Z,66.28
2019-02-11T23:16:08.086Z,66.49
2019-02-11T23:18:35.755Z,66.52
2019-02-11T23:21:03.211Z,66.71
2019-02-11T23:23:30.699Z,66.84
2019-02-11T23:25:58.103Z,66.95
2019-02-11T23:28:25.642Z,67.33
2019-02-11T23:30:53.146Z,67.22
2019-02-11T23:33:21.162Z,67.45
2019-02-11T23:35:48.536Z,67.40
2019-02-11T23:38:16.081Z,67.38
2019-02-11T23:40:43.582Z,67.40
2019-02-11T23:43:11.001Z,67.61
2019-02-11T23:45:39.441Z,67.92
2019-02-11T23:48:06.884Z,67.95
2019-02-11T23:50:34.366Z,68.07
2019-02-11T23:53:01.799Z,68.17
2019-02-11T23:55:29.290Z,68.34
2019-02-11T23:57:57.073Z,68.61
